createdAt,value
2019-01-12T00:01:01.008Z,6.68
2019-01-12T00:03:30.314Z,6.75
2019-01-12T00:05:59.652Z,6.67
2019-01-12T00:08:29.241Z,6.71
2019-01-12T00:10:58.623Z,6.61
2019-01-12T00:13:27.949Z,6.55
2019-01-12T00:15:57.275Z,6.54
2019-01-12T00:18:26.592Z,6.51
2019-01-12T00:20:56.288Z,6.49
2019-01-12T00:23:25.673Z,6.47
2019-01-12T00:25:54.962Z,6.51
2019-01-12T00:28:24.277Z,6.50
2019-01-12T00:30:53.595Z,6.50
2019-01-12T00:33:22.896Z,6.51
2019-01-12T00:35:52.286Z,6.56
2019-01-12T00:38:21.567Z,6.54
2019-01-12T00:40:50.899Z,6.56
2019-01-12T00:43:20.193Z,6.59
2019-01-12T00:45:49.518Z,6.54
2019-01-12T00:48:18.838Z,6.56
2019-01-12T00:50:48.203Z,6.61
2019-01-12T00:53:17.516Z,6.53
2019-01-12T00:55:46.844Z,6.51
2019-01-12T00:58:16.131Z,6.51
2019-01-12T01:00:45.453Z,6.50
2019-01-12T01:03:15.090Z,6.53
2019-01-12T01:05:44.469Z,6.56
2019-01-12T01:08:13.823Z,6.53
2019-01-12T01:10:43.151Z,6.57
2019-01-12T01:13:12.443Z,6.53
2019-01-12T01:15:41.908Z,6.52
2019-01-12T01:18:11.207Z,6.50
2019-01-12T01:20:40.528Z,6.61
2019-01-12T01:23:09.918Z,6.52
2019-01-12T01:25:39.212Z,6.55
2019-01-12T01:28:08.602Z,6.51
2019-01-12T01:30:37.927Z,6.53
2019-01-12T01:33:07.213Z,6.51
2019-01-12T01:35:36.500Z,6.52
2019-01-12T01:38:05.819Z,6.56
2019-01-12T01:40:35.115Z,6.55
2019-01-12T01:43:04.433Z,6.53
2019-01-12T01:45:33.839Z,6.51
2019-01-12T01:48:03.260Z,6.48
2019-01-12T01:50:32.553Z,6.45
2019-01-12T01:53:02.042Z,6.47
2019-01-12T01:55:31.335Z,6.47
2019-01-12T01:58:00.658Z,6.52
2019-01-12T02:00:30.024Z,6.46
2019-01-12T02:02:59.331Z,6.52
2019-01-12T02:05:28.808Z,6.52
2019-01-12T02:07:58.115Z,6.46
2019-01-12T02:10:27.438Z,6.52
2019-01-12T02:12:56.731Z,6.45
2019-01-12T02:15:26.038Z,6.40
2019-01-12T02:17:55.330Z,6.38
2019-01-12T02:20:24.743Z,6.46
2019-01-12T02:22:54.036Z,6.44
2019-01-12T02:25:23.423Z,6.46
2019-01-12T02:27:52.751Z,6.36
2019-01-12T02:30:23.073Z,6.31
2019-01-12T02:32:52.438Z,6.30
2019-01-12T02:35:22.085Z,6.28
2019-01-12T02:37:51.404Z,6.23
2019-01-12T02:40:20.732Z,6.35
2019-01-12T02:42:50.188Z,6.32
2019-01-12T02:45:19.646Z,6.39
2019-01-12T02:47:48.945Z,6.34
2019-01-12T02:50:18.267Z,6.29
2019-01-12T02:52:47.590Z,6.44
2019-01-12T02:55:16.891Z,6.42
2019-01-12T02:57:46.204Z,6.33
2019-01-12T03:00:17.801Z,6.32
2019-01-12T03:02:47.213Z,6.35
2019-01-12T03:05:16.933Z,6.33
2019-01-12T03:07:46.807Z,6.27
2019-01-12T03:10:16.387Z,6.32
2019-01-12T03:12:45.705Z,6.37
2019-01-12T03:15:16.857Z,6.36
2019-01-12T03:17:46.492Z,6.40
2019-01-12T03:20:17.151Z,6.43
2019-01-12T03:22:46.610Z,6.41
2019-01-12T03:25:18.742Z,6.36
2019-01-12T03:27:46.995Z,6.24
2019-01-12T03:30:17.187Z,6.17
2019-01-12T03:32:46.524Z,6.28
2019-01-12T03:35:16.023Z,6.25
2019-01-12T03:37:45.347Z,6.25
2019-01-12T03:40:16.977Z,6.24
2019-01-12T03:42:46.298Z,6.34
2019-01-12T03:45:17.440Z,6.29
2019-01-12T03:47:46.896Z,6.32
2019-01-12T03:50:17.025Z,6.36
2019-01-12T03:52:46.399Z,6.39
2019-01-12T03:55:16.258Z,6.39
2019-01-12T03:57:45.558Z,6.33
2019-01-12T04:00:18.206Z,6.36
2019-01-12T04:02:47.591Z,6.28
2019-01-12T04:05:17.159Z,6.34
2019-01-12T04:07:46.482Z,6.25
2019-01-12T04:10:15.898Z,6.13
2019-01-12T04:12:45.185Z,6.29
2019-01-12T04:15:15.051Z,6.32
2019-01-12T04:17:44.335Z,6.32
2019-01-12T04:20:15.935Z,6.26
2019-01-12T04:22:45.264Z,6.27
2019-01-12T04:25:14.584Z,6.31
2019-01-12T04:27:43.882Z,6.33
2019-01-12T04:30:15.706Z,6.38
2019-01-12T04:32:45.437Z,6.34
2019-01-12T04:35:15.396Z,6.39
2019-01-12T04:37:44.707Z,6.41
2019-01-12T04:40:17.800Z,6.42
2019-01-12T04:42:47.159Z,6.37
2019-01-12T04:45:16.826Z,6.32
2019-01-12T04:47:46.217Z,6.27
2019-01-12T04:50:16.487Z,6.34
2019-01-12T04:52:45.918Z,6.35
2019-01-12T04:55:15.961Z,6.36
2019-01-12T04:57:45.252Z,6.38
2019-01-12T05:00:17.108Z,6.40
2019-01-12T05:02:46.847Z,6.36
2019-01-12T05:05:17.004Z,6.35
2019-01-12T05:07:46.302Z,6.35
2019-01-12T05:10:16.351Z,6.32
2019-01-12T05:12:45.741Z,6.39
2019-01-12T05:15:15.838Z,6.33
2019-01-12T05:17:45.550Z,6.35
2019-01-12T05:20:19.106Z,6.44
2019-01-12T05:22:48.849Z,6.42
2019-01-12T05:25:18.431Z,6.35
2019-01-12T05:27:47.876Z,6.37
2019-01-12T05:30:19.806Z,6.32
2019-01-12T05:32:49.269Z,6.36
2019-01-12T05:35:18.562Z,6.34
2019-01-12T05:37:48.013Z,6.37
2019-01-12T05:40:17.363Z,6.22
2019-01-12T05:42:46.957Z,6.26
2019-01-12T05:45:16.393Z,6.37
2019-01-12T05:47:45.714Z,6.24
2019-01-12T05:50:15.084Z,6.26
2019-01-12T05:52:44.658Z,6.18
2019-01-12T05:55:14.040Z,6.23
2019-01-12T05:57:43.326Z,6.28
2019-01-12T06:00:15.677Z,6.24
2019-01-12T06:02:45.001Z,6.13
2019-01-12T06:05:14.371Z,6.27
2019-01-12T06:07:43.796Z,6.16
2019-01-12T06:10:14.813Z,6.11
2019-01-12T06:12:44.174Z,6.29
2019-01-12T06:15:14.618Z,6.39
2019-01-12T06:17:44.316Z,6.41
2019-01-12T06:20:15.721Z,6.40
2019-01-12T06:22:45.215Z,6.43
2019-01-12T06:25:14.649Z,6.55
2019-01-12T06:27:44.123Z,6.48
2019-01-12T06:30:16.262Z,6.53
2019-01-12T06:32:45.664Z,6.48
2019-01-12T06:35:15.159Z,6.47
2019-01-12T06:37:44.712Z,6.49
2019-01-12T06:40:16.173Z,6.35
2019-01-12T06:42:45.608Z,6.49
2019-01-12T06:45:17.098Z,6.40
2019-01-12T06:47:46.339Z,6.49
2019-01-12T06:50:17.733Z,6.58
2019-01-12T06:52:47.098Z,6.54
2019-01-12T06:55:16.495Z,6.58
2019-01-12T06:57:46.161Z,6.63
2019-01-12T07:00:17.929Z,6.63
2019-01-12T07:02:47.278Z,6.75
2019-01-12T07:05:16.674Z,6.38
2019-01-12T07:07:46.005Z,6.59
2019-01-12T07:10:15.894Z,6.61
2019-01-12T07:12:45.369Z,6.53
2019-01-12T07:15:15.600Z,6.51
2019-01-12T07:17:45.179Z,6.47
2019-01-12T07:20:17.805Z,6.55
2019-01-12T07:23:01.456Z,6.46
2019-01-12T07:25:44.648Z,6.58
2019-01-12T07:28:26.353Z,6.57
2019-01-12T07:31:06.710Z,6.48
2019-01-12T07:33:45.534Z,6.45
2019-01-12T07:36:16.230Z,6.38
2019-01-12T07:38:45.510Z,6.49
2019-01-12T07:41:14.822Z,6.56
2019-01-12T07:43:44.132Z,6.61
2019-01-12T07:46:13.437Z,6.65
2019-01-12T07:48:42.719Z,6.60
2019-01-12T07:51:12.014Z,6.54
2019-01-12T07:53:41.301Z,6.38
2019-01-12T07:56:10.608Z,6.40
2019-01-12T07:58:39.892Z,6.55
2019-01-12T08:01:09.187Z,6.59
2019-01-12T08:03:38.643Z,6.63
2019-01-12T08:06:07.925Z,6.50
2019-01-12T08:08:37.225Z,6.46
2019-01-12T08:11:06.511Z,6.59
2019-01-12T08:13:35.855Z,6.48
2019-01-12T08:16:05.474Z,6.53
2019-01-12T08:18:34.795Z,6.50
2019-01-12T08:21:04.580Z,6.42
2019-01-12T08:23:33.972Z,6.44
2019-01-12T08:26:03.333Z,6.51
2019-01-12T08:28:32.640Z,6.53
2019-01-12T08:31:01.999Z,6.53
2019-01-12T08:33:31.318Z,6.39
2019-01-12T08:36:00.635Z,6.57
2019-01-12T08:38:29.960Z,6.26
2019-01-12T08:40:59.269Z,6.66
2019-01-12T08:43:28.655Z,6.54
2019-01-12T08:45:59.195Z,6.48
2019-01-12T08:48:28.774Z,6.54
2019-01-12T08:50:58.495Z,6.49
2019-01-12T08:53:28.219Z,6.60
2019-01-12T08:55:57.532Z,6.59
2019-01-12T08:58:27.052Z,6.65
2019-01-12T09:00:58.126Z,6.64
2019-01-12T09:03:27.729Z,6.77
2019-01-12T09:06:01.633Z,6.62
2019-01-12T09:08:31.694Z,6.49
2019-01-12T09:11:01.164Z,6.53
2019-01-12T09:13:31.174Z,6.51
2019-01-12T09:16:01.209Z,6.56
2019-01-12T09:18:32.928Z,6.52
2019-01-12T09:21:02.601Z,6.56
2019-01-12T09:23:32.359Z,6.45
2019-01-12T09:26:01.752Z,6.45
2019-01-12T09:28:31.148Z,6.52
2019-01-12T09:31:00.806Z,6.55
2019-01-12T09:33:30.644Z,6.56
2019-01-12T09:36:01.853Z,6.62
2019-01-12T09:38:32.705Z,6.58
2019-01-12T09:41:02.517Z,6.67
2019-01-12T09:43:32.238Z,6.70
2019-01-12T09:46:01.720Z,6.63
2019-01-12T09:48:31.040Z,6.70
2019-01-12T09:51:00.392Z,6.79
2019-01-12T09:53:29.710Z,6.75
2019-01-12T09:55:59.341Z,6.74
2019-01-12T09:58:28.692Z,6.81
2019-01-12T10:00:58.363Z,6.80
2019-01-12T10:03:27.978Z,6.78
2019-01-12T10:05:57.297Z,6.80
2019-01-12T10:08:26.760Z,6.81
2019-01-12T10:10:56.144Z,6.93
2019-01-12T10:13:25.663Z,6.95
2019-01-12T10:15:54.977Z,6.88
2019-01-12T10:18:24.292Z,6.94
2019-01-12T10:20:54.132Z,6.99
2019-01-12T10:23:23.467Z,6.93
2019-01-12T10:25:52.818Z,6.95
2019-01-12T10:28:22.121Z,7.05
2019-01-12T10:30:51.457Z,7.01
2019-01-12T10:33:20.745Z,7.02
2019-01-12T10:35:50.141Z,6.90
2019-01-12T10:38:20.223Z,6.94
2019-01-12T10:40:49.820Z,6.88
2019-01-12T10:43:19.238Z,6.88
2019-01-12T10:45:48.614Z,6.94
2019-01-12T10:48:17.975Z,6.93
2019-01-12T10:50:47.286Z,6.92
2019-01-12T10:53:16.635Z,6.94
2019-01-12T10:55:45.947Z,6.97
2019-01-12T10:58:15.228Z,6.97
2019-01-12T11:00:45.487Z,7.01
2019-01-12T11:03:14.797Z,6.97
2019-01-12T11:05:44.107Z,6.95
2019-01-12T11:08:13.464Z,6.95
2019-01-12T11:10:42.781Z,6.97
2019-01-12T11:13:12.083Z,7.04
2019-01-12T11:15:41.380Z,7.00
2019-01-12T11:18:10.665Z,7.01
2019-01-12T11:20:40.081Z,7.00
2019-01-12T11:23:09.651Z,6.95
2019-01-12T11:25:42.892Z,6.96
2019-01-12T11:28:09.943Z,7.07
2019-01-12T11:30:39.232Z,7.03
2019-01-12T11:33:08.608Z,7.07
2019-01-12T11:35:38.015Z,7.09
2019-01-12T11:38:07.348Z,7.09
2019-01-12T11:40:36.704Z,7.07
2019-01-12T11:43:06.105Z,7.09
2019-01-12T11:45:35.687Z,7.10
2019-01-12T11:48:05.099Z,7.07
2019-01-12T11:50:34.823Z,7.04
2019-01-12T11:53:04.172Z,7.10
2019-01-12T11:55:33.555Z,7.19
2019-01-12T11:58:03.115Z,7.16
2019-01-12T12:00:32.464Z,7.27
2019-01-12T12:03:01.827Z,7.30
2019-01-12T12:05:31.255Z,7.25
2019-01-12T12:08:00.692Z,7.23
2019-01-12T12:10:30.343Z,7.24
2019-01-12T12:12:59.832Z,7.34
2019-01-12T12:15:29.140Z,7.34
2019-01-12T12:17:58.449Z,7.32
2019-01-12T12:20:28.088Z,7.31
2019-01-12T12:22:57.705Z,7.31
2019-01-12T12:25:27.020Z,7.22
2019-01-12T12:27:56.377Z,7.42
2019-01-12T12:30:29.577Z,7.42
2019-01-12T12:32:59.263Z,7.46
2019-01-12T12:35:28.574Z,7.54
2019-01-12T12:37:57.962Z,7.55
2019-01-12T12:40:27.736Z,7.55
2019-01-12T12:42:57.181Z,7.58
2019-01-12T12:45:29.215Z,7.58
2019-01-12T12:47:58.641Z,7.63
2019-01-12T12:50:27.956Z,7.63
2019-01-12T12:52:57.238Z,7.48
2019-01-12T12:55:26.926Z,7.51
2019-01-12T12:57:56.263Z,7.44
2019-01-12T13:00:28.722Z,7.45
2019-01-12T13:02:58.406Z,7.32
2019-01-12T13:05:27.795Z,7.32
2019-01-12T13:07:57.369Z,7.40
2019-01-12T13:10:28.629Z,7.34
2019-01-12T13:12:58.019Z,7.39
2019-01-12T13:15:27.628Z,7.35
2019-01-12T13:17:56.997Z,7.37
2019-01-12T13:20:26.443Z,7.37
2019-01-12T13:22:55.759Z,7.30
2019-01-12T13:25:25.047Z,7.26
2019-01-12T13:27:54.725Z,7.26
2019-01-12T13:30:25.438Z,7.25
2019-01-12T13:32:54.794Z,7.30
2019-01-12T13:35:24.222Z,7.14
2019-01-12T13:37:53.854Z,7.12
2019-01-12T13:40:25.111Z,7.19
2019-01-12T13:42:54.429Z,7.25
2019-01-12T13:45:23.902Z,7.20
2019-01-12T13:47:53.297Z,7.18
2019-01-12T13:50:24.604Z,7.17
2019-01-12T13:52:53.981Z,7.18
2019-01-12T13:55:23.283Z,7.16
2019-01-12T13:57:52.656Z,7.11
2019-01-12T14:00:24.621Z,7.14
2019-01-12T14:03:02.279Z,7.13
2019-01-12T14:05:49.766Z,7.13
2019-01-12T14:08:19.174Z,7.12
2019-01-12T14:10:48.451Z,7.14
2019-01-12T14:13:17.755Z,6.95
2019-01-12T14:15:47.867Z,7.12
2019-01-12T14:18:22.539Z,7.14
2019-01-12T14:20:49.119Z,7.20
2019-01-12T14:23:18.440Z,7.16
2019-01-12T14:25:47.884Z,7.09
2019-01-12T14:28:17.178Z,7.17
2019-01-12T14:30:48.439Z,7.10
2019-01-12T14:33:19.281Z,7.10
2019-01-12T14:35:50.236Z,7.12
2019-01-12T14:38:20.566Z,7.04
2019-01-12T14:40:49.877Z,7.01
2019-01-12T14:43:19.163Z,6.95
2019-01-12T14:45:48.474Z,7.01
2019-01-12T14:48:17.805Z,6.96
2019-01-12T14:50:47.178Z,7.03
2019-01-12T14:53:16.458Z,7.02
2019-01-12T14:55:45.759Z,7.04
2019-01-12T14:58:15.067Z,7.06
2019-01-12T15:00:44.449Z,7.10
2019-01-12T15:03:13.730Z,7.03
2019-01-12T15:05:43.097Z,7.03
2019-01-12T15:08:12.462Z,7.14
2019-01-12T15:10:41.975Z,7.03
2019-01-12T15:13:11.323Z,7.02
2019-01-12T15:15:40.642Z,7.06
2019-01-12T15:18:10.045Z,7.13
2019-01-12T15:20:39.348Z,7.08
2019-01-12T15:23:08.633Z,7.08
2019-01-12T15:25:38.015Z,7.17
2019-01-12T15:28:09.445Z,7.24
2019-01-12T15:30:38.440Z,7.21
2019-01-12T15:33:07.723Z,7.19
2019-01-12T15:35:37.375Z,7.16
2019-01-12T15:38:06.957Z,7.06
2019-01-12T15:40:36.274Z,7.16
2019-01-12T15:43:05.663Z,7.24
2019-01-12T15:45:34.946Z,7.25
2019-01-12T15:48:04.691Z,7.25
2019-01-12T15:50:33.967Z,7.16
2019-01-12T15:53:03.303Z,7.01
2019-01-12T15:55:32.691Z,7.04
2019-01-12T15:58:02.077Z,7.15
2019-01-12T16:00:31.526Z,7.14
2019-01-12T16:03:00.892Z,7.10
2019-01-12T16:05:30.380Z,7.13
2019-01-12T16:07:59.822Z,7.12
2019-01-12T16:10:29.218Z,7.16
2019-01-12T16:12:59.096Z,7.16
2019-01-12T16:15:28.546Z,7.22
2019-01-12T16:17:58.489Z,7.16
2019-01-12T16:20:33.995Z,7.11
2019-01-12T16:23:03.386Z,7.18
2019-01-12T16:25:32.834Z,7.12
2019-01-12T16:28:02.675Z,7.21
2019-01-12T16:30:32.049Z,7.21
2019-01-12T16:33:01.589Z,7.28
2019-01-12T16:35:30.970Z,7.28
2019-01-12T16:38:00.335Z,7.44
2019-01-12T16:40:29.803Z,7.44
2019-01-12T16:42:59.075Z,7.42
2019-01-12T16:45:28.394Z,7.49
2019-01-12T16:47:57.697Z,7.56
2019-01-12T16:50:27.042Z,7.59
2019-01-12T16:52:56.428Z,7.58
2019-01-12T16:55:25.746Z,7.58
2019-01-12T16:57:55.111Z,7.67
2019-01-12T17:00:26.845Z,7.68
2019-01-12T17:02:56.123Z,7.72
2019-01-12T17:05:25.796Z,7.72
2019-01-12T17:07:55.079Z,7.83
2019-01-12T17:10:24.393Z,7.82
2019-01-12T17:12:53.861Z,7.79
2019-01-12T17:15:23.901Z,7.77
2019-01-12T17:17:53.302Z,7.77
2019-01-12T17:20:25.179Z,7.79
2019-01-12T17:22:57.311Z,7.72
2019-01-12T17:25:26.865Z,7.82
2019-01-12T17:27:56.354Z,7.82
2019-01-12T17:30:26.481Z,7.81
2019-01-12T17:32:55.853Z,7.84
2019-01-12T17:35:25.128Z,7.85
2019-01-12T17:37:54.502Z,7.87
2019-01-12T17:40:23.860Z,7.87
2019-01-12T17:42:53.264Z,7.80
2019-01-12T17:45:26.146Z,7.72
2019-01-12T17:47:55.457Z,7.74
2019-01-12T17:50:26.234Z,7.71
2019-01-12T17:52:55.551Z,7.78
2019-01-12T17:55:26.330Z,7.78
2019-01-12T17:57:56.602Z,7.77
2019-01-12T18:00:32.371Z,7.77
2019-01-12T18:03:03.086Z,7.78
2019-01-12T18:05:33.490Z,7.83
2019-01-12T18:08:04.885Z,7.75
2019-01-12T18:10:35.429Z,7.75
2019-01-12T18:13:06.126Z,7.71
2019-01-12T18:15:36.785Z,7.66
2019-01-12T18:18:07.694Z,7.68
2019-01-12T18:20:38.152Z,7.68
2019-01-12T18:23:08.927Z,7.69
2019-01-12T18:25:39.788Z,7.72
2019-01-12T18:28:10.696Z,7.66
2019-01-12T18:30:42.093Z,7.64
2019-01-12T18:33:12.755Z,7.65
2019-01-12T18:35:43.544Z,7.69
2019-01-12T18:38:14.480Z,7.64
2019-01-12T18:40:45.164Z,7.65
2019-01-12T18:43:16.216Z,7.65
2019-01-12T18:45:47.851Z,7.64
2019-01-12T18:48:18.761Z,7.72
2019-01-12T18:50:49.143Z,7.72
2019-01-12T18:53:20.921Z,7.80
2019-01-12T18:55:51.454Z,7.75
2019-01-12T18:58:22.581Z,7.77
2019-01-12T19:00:53.125Z,7.75
2019-01-12T19:03:24.011Z,7.75
2019-01-12T19:05:55.085Z,7.80
2019-01-12T19:08:26.062Z,7.66
2019-01-12T19:10:56.758Z,7.66
2019-01-12T19:13:27.325Z,7.67
2019-01-12T19:15:57.908Z,7.67
2019-01-12T19:18:28.504Z,7.41
2019-01-12T19:20:59.058Z,7.53
2019-01-12T19:23:29.913Z,7.42
2019-01-12T19:26:00.458Z,7.42
2019-01-12T19:28:30.961Z,7.35
2019-01-12T19:31:02.216Z,7.16
2019-01-12T19:33:32.987Z,7.20
2019-01-12T19:36:03.142Z,7.18
2019-01-12T19:38:34.161Z,7.24
2019-01-12T19:41:04.953Z,7.24
2019-01-12T19:43:34.967Z,7.20
2019-01-12T19:46:06.233Z,7.12
2019-01-12T19:48:36.605Z,7.08
2019-01-12T19:51:07.169Z,7.08
2019-01-12T19:53:37.329Z,7.02
2019-01-12T19:56:07.997Z,7.16
2019-01-12T19:58:38.483Z,7.08
2019-01-12T20:01:09.404Z,7.10
2019-01-12T20:03:38.718Z,7.04
2019-01-12T20:06:08.011Z,7.03
2019-01-12T20:08:37.330Z,7.00
2019-01-12T20:11:07.001Z,6.98
2019-01-12T20:13:36.325Z,6.94
2019-01-12T20:16:05.613Z,6.91
2019-01-12T20:18:34.934Z,6.89
2019-01-12T20:21:04.623Z,6.87
2019-01-12T20:23:33.930Z,6.87
2019-01-12T20:26:03.255Z,6.88
2019-01-12T20:28:32.543Z,7.00
2019-01-12T20:31:07.777Z,6.91
2019-01-12T20:33:52.167Z,7.09
2019-01-12T20:36:27.641Z,6.96
2019-01-12T20:39:12.025Z,7.06
2019-01-12T20:41:56.548Z,7.06
2019-01-12T20:44:53.138Z,6.99
2019-01-12T20:47:37.228Z,6.94
2019-01-12T20:50:15.353Z,6.83
2019-01-12T20:52:59.562Z,6.79
2019-01-12T20:55:37.771Z,6.70
2019-01-12T20:58:19.250Z,6.68
2019-01-12T21:01:12.721Z,6.66
2019-01-12T21:04:03.333Z,6.75
2019-01-12T21:06:41.513Z,6.74
2019-01-12T21:09:20.226Z,6.70
2019-01-12T21:12:21.189Z,6.78
2019-01-12T21:14:54.175Z,6.73
2019-01-12T21:17:23.536Z,6.81
2019-01-12T21:19:52.833Z,6.96
2019-01-12T21:22:22.157Z,7.02
2019-01-12T21:24:51.479Z,7.06
2019-01-12T21:27:20.785Z,7.10
2019-01-12T21:29:50.127Z,7.21
2019-01-12T21:32:19.473Z,7.22
2019-01-12T21:34:48.776Z,7.35
2019-01-12T21:37:18.118Z,7.24
2019-01-12T21:39:47.392Z,7.28
2019-01-12T21:42:17.220Z,7.28
2019-01-12T21:44:46.531Z,7.26
2019-01-12T21:47:15.853Z,7.26
2019-01-12T21:49:45.565Z,7.20
2019-01-12T21:52:14.892Z,7.30
2019-01-12T21:54:44.280Z,7.15
2019-01-12T21:57:13.641Z,7.11
2019-01-12T21:59:42.999Z,7.00
2019-01-12T22:02:12.270Z,6.98
2019-01-12T22:04:41.582Z,6.93
2019-01-12T22:07:11.206Z,6.94
2019-01-12T22:09:40.541Z,6.99
2019-01-12T22:12:09.982Z,6.99
2019-01-12T22:14:39.298Z,7.13
2019-01-12T22:17:08.613Z,7.13
2019-01-12T22:19:37.941Z,7.17
2019-01-12T22:22:07.271Z,7.07
2019-01-12T22:24:36.857Z,7.19
2019-01-12T22:27:06.172Z,7.10
2019-01-12T22:29:35.680Z,7.00
2019-01-12T22:32:05.264Z,7.00
2019-01-12T22:34:34.580Z,7.12
2019-01-12T22:37:04.248Z,7.31
2019-01-12T22:39:33.636Z,7.41
2019-01-12T22:42:03.221Z,7.41
2019-01-12T22:44:32.542Z,7.32
2019-01-12T22:47:02.250Z,7.39
2019-01-12T22:49:31.563Z,7.37
2019-01-12T22:52:01.241Z,7.22
2019-01-12T22:54:30.640Z,7.22
2019-01-12T22:56:59.938Z,7.35
2019-01-12T22:59:29.250Z,7.27
2019-01-12T23:01:59.022Z,7.19
2019-01-12T23:04:28.751Z,7.14
2019-01-12T23:06:58.140Z,7.20
2019-01-12T23:09:27.785Z,7.18
2019-01-12T23:11:57.119Z,7.30
2019-01-12T23:14:26.590Z,7.15
2019-01-12T23:16:55.909Z,7.15
2019-01-12T23:19:25.232Z,7.17
2019-01-12T23:21:54.643Z,7.16
2019-01-12T23:24:23.909Z,7.24
2019-01-12T23:26:53.273Z,7.24
2019-01-12T23:29:22.737Z,7.18
2019-01-12T23:31:52.075Z,7.10
2019-01-12T23:34:21.357Z,7.31
2019-01-12T23:36:50.961Z,7.31
2019-01-12T23:39:20.276Z,7.30
2019-01-12T23:41:49.607Z,7.36
2019-01-12T23:44:18.969Z,7.36
2019-01-12T23:46:48.301Z,7.38
2019-01-12T23:49:17.626Z,7.46
2019-01-12T23:51:47.020Z,7.53
2019-01-12T23:54:16.306Z,7.53
2019-01-12T23:56:46.028Z,7.48
2019-01-12T23:59:15.346Z,7.49
